createdAt,value
2019-04-20T00:00:12.830Z,2.60
2019-04-20T00:01:12.573Z,2.90
2019-04-20T00:02:14.252Z,2.80
2019-04-20T00:03:09.921Z,3.00
2019-04-20T00:04:15.596Z,2.90
2019-04-20T00:05:09.896Z,2.90
2019-04-20T00:06:09.224Z,3.10
2019-04-20T00:07:10.091Z,2.70
2019-04-20T00:08:15.009Z,3.10
2019-04-20T00:09:15.814Z,2.60
2019-04-20T00:10:15.232Z,2.60
2019-04-20T00:11:16.334Z,2.90
2019-04-20T00:12:18.956Z,3.10
2019-04-20T00:13:21.596Z,2.70
2019-04-20T00:14:15.939Z,2.50
2019-04-20T00:15:11.074Z,2.90
2019-04-20T00:16:08.786Z,2.50
2019-04-20T00:17:09.523Z,2.90
2019-04-20T00:18:11.476Z,2.80
2019-04-20T00:19:10.506Z,2.90
2019-04-20T00:20:15.544Z,2.90
2019-04-20T00:21:12.952Z,2.90
2019-04-20T00:22:13.273Z,2.50
2019-04-20T00:23:14.580Z,2.60
2019-04-20T00:24:16.970Z,2.80
2019-04-20T00:25:15.500Z,2.70
2019-04-20T00:26:19.482Z,2.70
2019-04-20T00:27:32.744Z,2.70
2019-04-20T00:28:34.066Z,2.70
2019-04-20T00:29:32.130Z,2.70
2019-04-20T00:30:31.540Z,3.10
2019-04-20T00:31:23.256Z,2.90
2019-04-20T00:32:17.650Z,2.50
2019-04-20T00:33:26.992Z,2.80
2019-04-20T00:34:18.067Z,2.90
2019-04-20T00:35:10.476Z,2.80
2019-04-20T00:36:10.047Z,2.50
2019-04-20T00:37:08.835Z,3.00
2019-04-20T00:38:09.756Z,2.70
2019-04-20T00:39:11.382Z,2.80
2019-04-20T00:40:09.806Z,2.70
2019-04-20T00:41:12.002Z,2.80
2019-04-20T00:42:12.866Z,3.00
2019-04-20T00:43:08.757Z,3.00
2019-04-20T00:44:13.307Z,2.80
2019-04-20T00:45:16.191Z,2.90
2019-04-20T00:46:19.613Z,2.70
2019-04-20T00:47:20.084Z,2.90
2019-04-20T00:48:22.664Z,2.80
2019-04-20T00:49:27.583Z,2.90
2019-04-20T00:50:28.270Z,2.80
2019-04-20T00:51:31.223Z,2.70
2019-04-20T00:52:27.616Z,3.10
2019-04-20T00:53:18.208Z,2.60
2019-04-20T00:54:09.591Z,2.60
2019-04-20T00:55:08.425Z,2.50
2019-04-20T00:56:09.871Z,2.30
2019-04-20T00:57:17.691Z,2.60
2019-04-20T00:58:18.981Z,3.00
2019-04-20T00:59:24.079Z,2.70
2019-04-20T01:00:29.951Z,2.60
2019-04-20T01:01:31.143Z,3.00
2019-04-20T01:02:20.992Z,2.80
2019-04-20T01:03:24.754Z,2.70
2019-04-20T01:04:31.144Z,2.70
2019-04-20T01:05:23.169Z,2.60
2019-04-20T01:06:26.903Z,2.60
2019-04-20T01:07:20.337Z,2.60
2019-04-20T01:08:10.065Z,2.60
2019-04-20T01:09:08.279Z,2.90
2019-04-20T01:10:09.131Z,2.70
2019-04-20T01:11:08.273Z,2.80
2019-04-20T01:12:14.798Z,2.60
2019-04-20T01:13:15.163Z,2.70
2019-04-20T01:14:12.281Z,2.90
2019-04-20T01:15:11.775Z,2.90
2019-04-20T01:16:21.374Z,2.40
2019-04-20T01:17:12.063Z,2.80
2019-04-20T01:18:10.716Z,2.90
2019-04-20T01:19:09.123Z,2.80
2019-04-20T01:20:08.117Z,3.10
2019-04-20T01:21:14.020Z,2.60
2019-04-20T01:22:13.603Z,3.00
2019-04-20T01:23:13.952Z,2.50
2019-04-20T01:24:14.762Z,2.60
2019-04-20T01:25:17.331Z,2.60
2019-04-20T01:26:13.065Z,2.60
2019-04-20T01:27:24.591Z,2.50
2019-04-20T01:28:27.833Z,2.50
2019-04-20T01:29:20.526Z,2.80
2019-04-20T01:30:19.013Z,2.60
2019-04-20T01:31:18.725Z,2.60
2019-04-20T01:32:20.962Z,3.00
2019-04-20T01:33:25.196Z,2.70
2019-04-20T01:34:26.674Z,2.80
2019-04-20T01:35:26.123Z,2.60
2019-04-20T01:36:25.386Z,2.60
2019-04-20T01:37:24.728Z,2.60
2019-04-20T01:38:26.681Z,2.60
2019-04-20T01:39:18.407Z,2.70
2019-04-20T01:40:09.938Z,3.20
2019-04-20T01:41:07.910Z,2.60
2019-04-20T01:42:08.674Z,2.60
2019-04-20T01:43:08.022Z,2.60
2019-04-20T01:44:09.078Z,2.60
2019-04-20T01:45:14.597Z,2.50
2019-04-20T01:46:15.100Z,2.50
2019-04-20T01:47:10.391Z,2.60
2019-04-20T01:48:08.281Z,2.60
2019-04-20T01:49:15.096Z,2.50
2019-04-20T01:50:15.351Z,2.70
2019-04-20T01:51:14.103Z,2.50
2019-04-20T01:52:16.966Z,2.30
2019-04-20T01:53:18.987Z,2.70
2019-04-20T01:54:23.465Z,2.60
2019-04-20T01:55:28.864Z,2.60
2019-04-20T01:56:23.106Z,2.50
2019-04-20T01:57:16.521Z,2.60
2019-04-20T01:58:31.398Z,2.40
2019-04-20T01:59:22.818Z,2.50
2019-04-20T02:00:14.453Z,2.50
2019-04-20T02:01:13.681Z,2.70
2019-04-20T02:02:13.156Z,2.60
2019-04-20T02:03:09.953Z,2.50
2019-04-20T02:04:17.166Z,2.50
2019-04-20T02:05:15.790Z,2.50
2019-04-20T02:06:14.515Z,2.50
2019-04-20T02:07:10.190Z,2.50
2019-04-20T02:08:12.922Z,2.50
2019-04-20T02:09:13.466Z,2.40
2019-04-20T02:10:11.664Z,2.40
2019-04-20T02:11:09.931Z,2.50
2019-04-20T02:12:15.453Z,2.60
2019-04-20T02:13:09.791Z,2.70
2019-04-20T02:14:10.362Z,2.90
2019-04-20T02:15:17.221Z,2.50
2019-04-20T02:16:16.883Z,2.60
2019-04-20T02:17:19.611Z,2.80
2019-04-20T02:18:23.133Z,3.00
2019-04-20T02:19:22.969Z,2.70
2019-04-20T02:20:31.908Z,2.60
2019-04-20T02:21:24.558Z,2.80
2019-04-20T02:22:22.731Z,2.70
2019-04-20T02:23:23.796Z,2.70
2019-04-20T02:24:10.926Z,2.60
2019-04-20T02:25:07.989Z,2.50
2019-04-20T02:26:07.410Z,2.70
2019-04-20T02:27:08.202Z,2.60
2019-04-20T02:28:22.916Z,2.60
2019-04-20T02:29:30.499Z,2.50
2019-04-20T02:30:42.553Z,2.40
2019-04-20T02:31:55.835Z,2.50
2019-04-20T02:32:36.634Z,2.70
2019-04-20T02:33:42.523Z,2.90
2019-04-20T02:34:47.769Z,2.60
2019-04-20T02:35:42.667Z,2.80
2019-04-20T02:36:53.173Z,2.60
2019-04-20T02:37:51.341Z,2.80
2019-04-20T02:39:05.174Z,2.50
2019-04-20T02:40:47.697Z,2.80
2019-04-20T02:42:44.696Z,2.50
2019-04-20T02:43:49.796Z,2.70
2019-04-20T02:44:49.994Z,2.80
2019-04-20T02:45:39.969Z,2.70
2019-04-20T02:46:44.187Z,2.50
2019-04-20T02:47:43.308Z,2.50
2019-04-20T02:48:45.425Z,2.60
2019-04-20T02:51:41.034Z,2.70
2019-04-20T02:53:51.424Z,2.70
2019-04-20T02:54:36.212Z,2.90
2019-04-20T02:55:41.833Z,2.50
2019-04-20T02:57:51.036Z,2.70
2019-04-20T02:58:41.993Z,2.50
2019-04-20T03:00:31.346Z,2.60
2019-04-20T03:01:27.777Z,2.50
2019-04-20T03:02:21.985Z,2.60
2019-04-20T03:03:20.074Z,2.60
2019-04-20T03:04:20.267Z,2.20
2019-04-20T03:05:22.989Z,2.60
2019-04-20T03:06:19.831Z,2.60
2019-04-20T03:07:23.221Z,2.60
2019-04-20T03:08:22.380Z,2.60
2019-04-20T03:09:35.300Z,2.70
2019-04-20T03:10:38.993Z,2.30
2019-04-20T03:11:44.279Z,2.80
2019-04-20T03:12:33.430Z,2.40
2019-04-20T03:13:27.071Z,2.60
2019-04-20T03:14:21.751Z,2.50
2019-04-20T03:15:36.396Z,2.50
2019-04-20T03:16:24.811Z,2.70
2019-04-20T03:17:33.436Z,2.40
2019-04-20T03:18:28.190Z,2.50
2019-04-20T03:19:25.109Z,2.50
2019-04-20T03:20:32.283Z,2.60
2019-04-20T03:21:33.345Z,2.60
2019-04-20T03:22:39.475Z,2.60
2019-04-20T03:23:35.877Z,3.10
2019-04-20T03:24:31.094Z,2.60
2019-04-20T03:25:30.084Z,2.50
2019-04-20T03:26:31.326Z,2.40
2019-04-20T03:27:28.158Z,2.90
2019-04-20T03:28:28.017Z,2.60
2019-04-20T03:29:24.163Z,2.70
2019-04-20T03:31:04.017Z,2.90
2019-04-20T03:34:02.989Z,2.90
2019-04-20T03:35:00.834Z,2.40
2019-04-20T03:35:50.917Z,2.70
2019-04-20T03:36:37.578Z,2.60
2019-04-20T03:37:30.588Z,2.70
2019-04-20T03:38:27.261Z,2.90
2019-04-20T03:39:23.323Z,2.50
2019-04-20T03:40:21.632Z,2.60
2019-04-20T03:41:18.312Z,2.50
2019-04-20T03:42:09.346Z,2.80
2019-04-20T03:43:07.643Z,2.60
2019-04-20T03:44:13.700Z,2.70
2019-04-20T03:45:13.143Z,2.50
2019-04-20T03:46:11.627Z,2.40
2019-04-20T03:47:11.760Z,2.60
2019-04-20T03:48:21.333Z,2.50
2019-04-20T03:49:35.243Z,2.40
2019-04-20T03:50:34.621Z,2.60
2019-04-20T03:51:37.117Z,3.00
2019-04-20T03:52:23.408Z,2.70
2019-04-20T03:53:27.853Z,2.50
2019-04-20T03:54:19.868Z,2.60
2019-04-20T03:55:26.591Z,2.40
2019-04-20T03:56:27.993Z,2.70
2019-04-20T03:57:27.681Z,2.80
2019-04-20T03:58:24.256Z,2.40
2019-04-20T03:59:21.246Z,2.40
2019-04-20T04:00:26.953Z,2.60
2019-04-20T04:01:44.139Z,2.50
2019-04-20T04:02:37.848Z,2.50
2019-04-20T04:03:35.044Z,2.60
2019-04-20T04:04:27.596Z,2.60
2019-04-20T04:05:26.258Z,2.40
2019-04-20T04:06:17.860Z,2.70
2019-04-20T04:07:18.457Z,2.40
2019-04-20T04:08:16.984Z,2.60
2019-04-20T04:09:22.641Z,2.50
2019-04-20T04:10:23.224Z,2.70
2019-04-20T04:11:26.233Z,3.00
2019-04-20T04:12:18.745Z,2.80
2019-04-20T04:13:09.627Z,2.70
2019-04-20T04:14:07.140Z,2.60
2019-04-20T04:15:06.553Z,2.80
2019-04-20T04:16:10.157Z,2.40
2019-04-20T04:17:07.420Z,2.40
2019-04-20T04:18:13.892Z,2.80
2019-04-20T04:19:17.679Z,2.60
2019-04-20T04:20:12.832Z,2.60
2019-04-20T04:21:11.447Z,2.70
2019-04-20T04:22:19.349Z,2.80
2019-04-20T04:23:22.160Z,2.70
2019-04-20T04:24:22.604Z,2.60
2019-04-20T04:25:15.933Z,2.60
2019-04-20T04:26:29.210Z,2.90
2019-04-20T04:27:24.443Z,2.80
2019-04-20T04:28:27.621Z,2.70
2019-04-20T04:29:32.551Z,2.60
2019-04-20T04:30:23.237Z,2.50
2019-04-20T04:31:28.125Z,2.40
2019-04-20T04:32:47.967Z,2.70
2019-04-20T04:33:47.465Z,2.80
2019-04-20T04:34:25.027Z,3.00
2019-04-20T04:35:20.151Z,2.70
2019-04-20T04:36:21.151Z,2.50
2019-04-20T04:37:28.941Z,2.70
2019-04-20T04:38:32.762Z,2.60
2019-04-20T04:39:31.245Z,2.40
2019-04-20T04:40:31.816Z,3.20
2019-04-20T04:41:27.014Z,2.80
2019-04-20T04:42:27.960Z,2.80
2019-04-20T04:43:27.770Z,2.70
2019-04-20T04:44:19.267Z,2.80
2019-04-20T04:45:12.104Z,2.60
2019-04-20T04:46:07.925Z,2.60
2019-04-20T04:47:08.711Z,2.40
2019-04-20T04:48:13.249Z,2.70
2019-04-20T04:49:16.480Z,2.70
2019-04-20T04:50:13.069Z,2.80
2019-04-20T04:51:14.887Z,2.80
2019-04-20T04:52:12.662Z,2.50
2019-04-20T04:53:20.643Z,2.70
2019-04-20T04:54:16.313Z,2.70
2019-04-20T04:55:22.075Z,2.60
2019-04-20T04:56:11.697Z,2.70
2019-04-20T04:57:07.387Z,2.70
2019-04-20T04:58:06.456Z,2.90
2019-04-20T04:59:06.474Z,2.70
2019-04-20T05:00:09.207Z,2.60
2019-04-20T05:01:13.891Z,2.60
2019-04-20T05:02:07.653Z,2.60
2019-04-20T05:03:23.155Z,2.60
2019-04-20T05:04:25.136Z,2.60
2019-04-20T05:05:31.173Z,2.80
2019-04-20T05:06:21.983Z,2.70
2019-04-20T05:07:22.337Z,2.90
2019-04-20T05:08:17.407Z,2.60
2019-04-20T05:09:10.658Z,2.80
2019-04-20T05:10:07.700Z,2.60
2019-04-20T05:11:06.950Z,2.50
2019-04-20T05:12:12.695Z,2.80
2019-04-20T05:13:07.118Z,2.80
2019-04-20T05:14:10.065Z,2.60
2019-04-20T05:15:15.258Z,2.70
2019-04-20T05:16:21.695Z,2.70
2019-04-20T05:17:23.301Z,2.70
2019-04-20T05:18:35.769Z,2.80
2019-04-20T05:19:29.438Z,2.80
2019-04-20T05:20:25.705Z,2.80
2019-04-20T05:21:28.246Z,2.90
2019-04-20T05:22:24.745Z,3.00
2019-04-20T05:23:22.029Z,2.70
2019-04-20T05:24:22.643Z,2.80
2019-04-20T05:25:26.389Z,3.00
2019-04-20T05:26:25.910Z,3.00
2019-04-20T05:27:26.047Z,2.90
2019-04-20T05:28:20.817Z,2.80
2019-04-20T05:29:14.284Z,2.90
2019-04-20T05:30:07.684Z,3.00
2019-04-20T05:31:08.030Z,2.70
2019-04-20T05:32:11.487Z,3.00
2019-04-20T05:33:11.638Z,2.90
2019-04-20T05:34:25.476Z,2.90
2019-04-20T05:35:27.011Z,2.90
2019-04-20T05:36:23.437Z,3.00
2019-04-20T05:37:37.165Z,2.90
2019-04-20T05:38:32.130Z,2.90
2019-04-20T05:40:27.408Z,3.20
2019-04-20T05:41:24.043Z,3.00
2019-04-20T05:42:33.901Z,2.70
2019-04-20T05:43:24.317Z,3.20
2019-04-20T05:44:22.098Z,3.20
2019-04-20T05:45:21.832Z,3.40
2019-04-20T05:46:26.190Z,3.50
2019-04-20T05:47:29.179Z,3.70
2019-04-20T05:48:21.953Z,3.40
2019-04-20T05:49:28.048Z,3.50
2019-04-20T05:50:29.301Z,3.50
2019-04-20T05:51:29.825Z,3.50
2019-04-20T05:52:35.113Z,3.50
2019-04-20T05:53:30.483Z,4.00
2019-04-20T05:54:26.947Z,3.40
2019-04-20T05:55:26.698Z,3.60
2019-04-20T05:56:30.663Z,3.60
2019-04-20T05:57:30.329Z,3.40
2019-04-20T05:58:29.187Z,3.40
2019-04-20T05:59:28.396Z,3.60
2019-04-20T06:00:26.524Z,3.60
2019-04-20T06:01:26.919Z,3.70
2019-04-20T06:02:29.447Z,3.80
2019-04-20T06:03:28.996Z,3.60
2019-04-20T06:04:39.969Z,3.80
2019-04-20T06:05:28.841Z,3.60
2019-04-20T06:06:27.826Z,3.70
2019-04-20T06:08:41.690Z,4.00
2019-04-20T06:09:28.368Z,3.70
2019-04-20T06:10:31.811Z,3.60
2019-04-20T06:11:25.742Z,4.00
2019-04-20T06:12:32.059Z,3.90
2019-04-20T06:13:17.372Z,4.20
2019-04-20T06:14:15.177Z,4.00
2019-04-20T06:15:22.403Z,4.60
2019-04-20T06:16:24.750Z,4.30
2019-04-20T06:17:26.568Z,3.80
2019-04-20T06:18:21.136Z,3.80
2019-04-20T06:19:31.984Z,4.60
2019-04-20T06:20:28.408Z,4.40
2019-04-20T06:21:34.034Z,4.40
2019-04-20T06:22:30.801Z,4.20
2019-04-20T06:23:34.614Z,4.20
2019-04-20T06:24:36.329Z,4.20
2019-04-20T06:26:36.933Z,4.70
2019-04-20T06:27:30.852Z,4.20
2019-04-20T06:28:22.182Z,4.20
2019-04-20T06:29:21.936Z,4.70
2019-04-20T06:30:19.218Z,4.30
2019-04-20T06:31:40.949Z,4.50
2019-04-20T06:32:33.692Z,4.90
2019-04-20T06:33:52.163Z,4.20
2019-04-20T06:35:42.961Z,4.50
2019-04-20T06:36:32.168Z,4.20
2019-04-20T06:37:25.797Z,4.40
2019-04-20T06:38:46.557Z,4.10
2019-04-20T06:39:30.873Z,4.70
2019-04-20T06:40:52.860Z,4.30
2019-04-20T06:41:45.559Z,4.80
2019-04-20T06:42:23.702Z,4.70
2019-04-20T06:43:34.927Z,4.30
2019-04-20T06:44:32.202Z,4.50
2019-04-20T06:45:36.407Z,4.70
2019-04-20T06:46:29.298Z,4.50
2019-04-20T06:47:31.068Z,4.90
2019-04-20T06:48:35.829Z,4.30
2019-04-20T06:49:33.403Z,4.50
2019-04-20T06:50:24.589Z,4.60
2019-04-20T06:51:29.870Z,4.70
2019-04-20T06:53:32.432Z,4.30
2019-04-20T06:54:15.916Z,4.80
2019-04-20T06:55:28.950Z,4.30
2019-04-20T06:56:29.489Z,4.40
2019-04-20T06:57:27.151Z,4.50
2019-04-20T06:58:40.685Z,4.80
2019-04-20T06:59:31.770Z,4.70
2019-04-20T07:00:22.912Z,4.50
2019-04-20T07:01:25.120Z,4.50
2019-04-20T07:02:29.941Z,4.60
2019-04-20T07:03:36.714Z,4.50
2019-04-20T07:05:43.939Z,4.50
2019-04-20T07:06:48.366Z,4.80
2019-04-20T07:07:27.632Z,4.80
2019-04-20T07:08:42.405Z,4.90
2019-04-20T07:09:34.951Z,5.10
2019-04-20T07:10:43.912Z,4.90
2019-04-20T07:11:30.775Z,5.10
2019-04-20T07:12:23.026Z,5.10
2019-04-20T07:13:20.362Z,5.00
2019-04-20T07:14:13.439Z,5.30
2019-04-20T07:15:22.822Z,5.00
2019-04-20T07:16:28.305Z,4.80
2019-04-20T07:18:31.330Z,5.40
2019-04-20T07:19:23.069Z,5.40
2019-04-20T07:20:26.128Z,5.10
2019-04-20T07:21:37.337Z,5.60
2019-04-20T07:22:33.785Z,5.50
2019-04-20T07:23:31.193Z,5.10
2019-04-20T07:24:30.832Z,5.60
2019-04-20T07:25:24.458Z,5.50
2019-04-20T07:26:29.185Z,5.50
2019-04-20T07:27:26.210Z,5.30
2019-04-20T07:28:32.775Z,5.10
2019-04-20T07:29:30.115Z,5.60
2019-04-20T07:30:21.622Z,5.30
2019-04-20T07:31:24.657Z,5.30
2019-04-20T07:32:17.826Z,5.70
2019-04-20T07:33:30.337Z,5.80
2019-04-20T07:34:29.055Z,5.20
2019-04-20T07:35:24.787Z,5.70
2019-04-20T07:36:32.452Z,5.80
2019-04-20T07:37:51.378Z,5.30
2019-04-20T07:39:28.069Z,5.20
2019-04-20T07:40:26.938Z,5.50
2019-04-20T07:41:35.767Z,5.80
2019-04-20T07:42:29.405Z,5.30
2019-04-20T07:43:28.344Z,5.40
2019-04-20T07:44:35.929Z,5.60
2019-04-20T07:45:30.830Z,5.50
2019-04-20T07:46:42.481Z,6.20
2019-04-20T07:47:34.510Z,6.00
2019-04-20T07:48:27.820Z,5.60
2019-04-20T07:49:27.105Z,5.50
2019-04-20T07:50:21.280Z,5.80
2019-04-20T07:51:13.716Z,5.60
2019-04-20T07:52:06.211Z,5.70
2019-04-20T07:53:24.568Z,5.90
2019-04-20T07:54:30.348Z,5.80
2019-04-20T07:55:42.234Z,6.10
2019-04-20T07:56:32.611Z,6.30
2019-04-20T07:57:24.659Z,6.40
2019-04-20T07:58:18.209Z,6.60
2019-04-20T07:59:17.828Z,5.80
2019-04-20T08:00:35.539Z,6.30
2019-04-20T08:01:30.166Z,5.80
2019-04-20T08:02:32.059Z,5.90
2019-04-20T08:03:35.279Z,6.00
2019-04-20T08:04:24.506Z,5.90
2019-04-20T08:05:21.924Z,6.10
2019-04-20T08:06:11.559Z,5.80
2019-04-20T08:07:09.153Z,6.10
2019-04-20T08:08:23.869Z,5.70
2019-04-20T08:09:20.807Z,5.70
2019-04-20T08:10:09.989Z,6.30
2019-04-20T08:11:24.034Z,5.90
2019-04-20T08:12:33.965Z,5.70
2019-04-20T08:13:32.574Z,6.30
2019-04-20T08:14:30.662Z,5.70
2019-04-20T08:15:38.099Z,5.80
2019-04-20T08:16:32.972Z,5.70
2019-04-20T08:17:31.193Z,6.10
2019-04-20T08:18:27.409Z,5.90
2019-04-20T08:20:25.694Z,6.10
2019-04-20T08:21:32.865Z,5.70
2019-04-20T08:22:26.817Z,5.70
2019-04-20T08:23:17.587Z,5.80
2019-04-20T08:24:21.477Z,5.60
2019-04-20T08:25:16.736Z,5.70
2019-04-20T08:26:14.176Z,5.50
2019-04-20T08:27:09.158Z,5.60
2019-04-20T08:28:06.324Z,5.70
2019-04-20T08:29:19.047Z,5.70
2019-04-20T08:30:28.156Z,5.80
2019-04-20T08:31:18.225Z,5.50
2019-04-20T08:32:24.072Z,5.80
2019-04-20T08:33:29.914Z,5.70
2019-04-20T08:34:31.210Z,6.00
2019-04-20T08:35:26.896Z,5.70
2019-04-20T08:36:27.253Z,5.50
2019-04-20T08:37:20.768Z,6.00
2019-04-20T08:39:37.655Z,5.60
2019-04-20T08:40:25.528Z,5.50
2019-04-20T08:41:22.823Z,5.40
2019-04-20T08:42:22.545Z,5.20
2019-04-20T08:43:38.370Z,5.30
2019-04-20T08:45:31.632Z,5.10
2019-04-20T08:46:26.488Z,5.50
2019-04-20T08:47:32.223Z,5.70
2019-04-20T08:48:31.424Z,5.90
2019-04-20T08:49:29.687Z,5.70
2019-04-20T08:50:22.480Z,5.60
2019-04-20T08:51:25.920Z,5.30
2019-04-20T08:52:47.077Z,5.40
2019-04-20T08:53:28.106Z,5.80
2019-04-20T08:54:23.369Z,5.40
2019-04-20T08:55:23.785Z,6.00
2019-04-20T08:56:18.808Z,5.40
2019-04-20T08:57:04.990Z,5.30
2019-04-20T08:58:04.444Z,5.70
2019-04-20T08:59:03.935Z,5.30
2019-04-20T09:00:05.173Z,5.30
2019-04-20T09:01:06.949Z,5.80
2019-04-20T09:02:08.999Z,5.30
2019-04-20T09:03:13.724Z,5.90
2019-04-20T09:04:12.489Z,5.80
2019-04-20T09:05:13.069Z,6.00
2019-04-20T09:06:19.332Z,5.80
2019-04-20T09:07:11.546Z,6.20
2019-04-20T09:08:14.405Z,6.00
2019-04-20T09:09:33.495Z,5.80
2019-04-20T09:10:28.296Z,5.70
2019-04-20T09:11:19.687Z,5.80
2019-04-20T09:12:21.146Z,6.00
2019-04-20T09:13:11.656Z,6.60
2019-04-20T09:14:05.914Z,5.90
2019-04-20T09:15:03.801Z,6.00
2019-04-20T09:16:04.249Z,6.10
2019-04-20T09:17:08.915Z,5.70
2019-04-20T09:18:13.485Z,5.60
2019-04-20T09:19:09.369Z,6.50
2019-04-20T09:20:11.989Z,6.40
2019-04-20T09:21:15.470Z,6.50
2019-04-20T09:22:18.791Z,5.70
2019-04-20T09:23:23.850Z,5.80
2019-04-20T09:24:29.882Z,6.40
2019-04-20T09:25:43.182Z,6.20
2019-04-20T09:26:20.794Z,6.00
2019-04-20T09:27:18.128Z,6.50
2019-04-20T09:28:11.709Z,5.90
2019-04-20T09:29:18.461Z,6.20
2019-04-20T09:30:20.491Z,6.20
2019-04-20T09:31:28.252Z,6.10
2019-04-20T09:32:26.295Z,6.00
2019-04-20T09:33:23.524Z,5.80
2019-04-20T09:34:20.392Z,6.10
2019-04-20T09:35:26.077Z,6.00
2019-04-20T09:36:17.889Z,6.30
2019-04-20T09:37:41.425Z,6.00
2019-04-20T09:38:21.705Z,6.20
2019-04-20T09:39:16.498Z,5.90
2019-04-20T09:40:20.238Z,6.30
2019-04-20T09:41:26.369Z,5.70
2019-04-20T09:42:03.841Z,6.20
2019-04-20T09:43:02.842Z,6.10
2019-04-20T09:44:02.813Z,5.90
2019-04-20T09:45:04.926Z,6.20
2019-04-20T09:46:06.828Z,6.40
2019-04-20T09:47:06.470Z,6.50
2019-04-20T09:48:06.772Z,6.40
2019-04-20T09:49:16.800Z,6.30
2019-04-20T09:50:24.748Z,6.20
2019-04-20T09:51:24.775Z,6.00
2019-04-20T09:52:17.047Z,6.30
2019-04-20T09:53:20.883Z,6.60
2019-04-20T09:54:22.973Z,6.30
2019-04-20T09:55:18.523Z,6.20
2019-04-20T09:56:20.828Z,6.30
2019-04-20T09:57:26.859Z,6.40
2019-04-20T09:58:15.754Z,6.30
2019-04-20T09:59:27.024Z,6.40
2019-04-20T10:00:20.881Z,5.90
2019-04-20T10:01:15.627Z,5.90
2019-04-20T10:02:10.254Z,5.90
2019-04-20T10:03:04.387Z,5.80
2019-04-20T10:04:03.463Z,6.00
2019-04-20T10:05:02.602Z,6.00
2019-04-20T10:06:03.415Z,6.10
2019-04-20T10:07:09.307Z,5.80
2019-04-20T10:08:07.957Z,6.60
2019-04-20T10:09:05.120Z,5.70
2019-04-20T10:10:15.851Z,5.60
2019-04-20T10:11:03.609Z,5.90
2019-04-20T10:12:03.733Z,5.80
2019-04-20T10:13:02.565Z,5.80
2019-04-20T10:14:02.499Z,5.40
2019-04-20T10:15:11.661Z,5.70
2019-04-20T10:16:03.847Z,5.30
2019-04-20T10:17:02.474Z,5.30
2019-04-20T10:18:03.626Z,6.10
2019-04-20T10:19:02.808Z,5.60
2019-04-20T10:20:09.577Z,6.00
2019-04-20T10:21:03.469Z,6.30
2019-04-20T10:22:02.576Z,5.60
2019-04-20T10:23:02.669Z,6.20
2019-04-20T10:24:02.859Z,6.40
2019-04-20T10:25:02.722Z,6.00
2019-04-20T10:26:02.618Z,6.10
2019-04-20T10:27:02.992Z,6.20
2019-04-20T10:28:03.361Z,6.10
2019-04-20T10:29:03.547Z,7.10
2019-04-20T10:30:04.720Z,6.80
2019-04-20T10:31:02.394Z,5.90
2019-04-20T10:32:06.974Z,6.30
2019-04-20T10:33:03.623Z,5.80
2019-04-20T10:34:02.286Z,5.90
2019-04-20T10:35:02.547Z,6.20
2019-04-20T10:36:03.486Z,6.10
2019-04-20T10:37:02.256Z,6.30
2019-04-20T10:38:03.252Z,5.90
2019-04-20T10:39:02.443Z,6.60
2019-04-20T10:40:02.865Z,7.00
2019-04-20T10:41:11.292Z,6.10
2019-04-20T10:42:04.347Z,6.60
2019-04-20T10:43:03.135Z,6.10
2019-04-20T10:44:02.874Z,6.50
2019-04-20T10:45:03.041Z,6.10
2019-04-20T10:46:02.719Z,6.00
2019-04-20T10:47:02.955Z,6.00
2019-04-20T10:48:03.367Z,6.20
2019-04-20T10:49:04.306Z,5.90
2019-04-20T10:50:03.112Z,6.00
2019-04-20T10:51:03.126Z,6.10
2019-04-20T10:52:02.243Z,6.50
2019-04-20T10:53:02.091Z,6.00
2019-04-20T10:54:02.497Z,6.30
2019-04-20T10:55:02.904Z,6.80
2019-04-20T10:56:03.457Z,6.20
2019-04-20T10:57:02.050Z,6.60
2019-04-20T10:58:02.034Z,6.20
2019-04-20T10:59:03.378Z,6.20
2019-04-20T11:00:02.019Z,6.00
2019-04-20T11:01:02.025Z,6.20
2019-04-20T11:02:01.996Z,6.70
2019-04-20T11:03:01.985Z,6.70
2019-04-20T11:04:03.024Z,6.60
2019-04-20T11:05:02.595Z,6.90
2019-04-20T11:06:02.709Z,6.50
2019-04-20T11:07:02.838Z,7.20
2019-04-20T11:08:02.260Z,6.60
2019-04-20T11:09:02.548Z,6.50
2019-04-20T11:10:11.118Z,6.40
2019-04-20T11:11:13.011Z,6.20
2019-04-20T11:12:04.096Z,5.60
2019-04-20T11:13:03.203Z,6.10
2019-04-20T11:14:11.488Z,5.70
2019-04-20T11:15:03.855Z,5.80
2019-04-20T11:16:02.208Z,5.80
2019-04-20T11:17:02.568Z,6.00
2019-04-20T11:18:01.832Z,5.20
2019-04-20T11:19:03.158Z,5.80
2019-04-20T11:20:01.813Z,5.70
2019-04-20T11:21:01.817Z,5.70
2019-04-20T11:22:02.175Z,5.60
2019-04-20T11:23:02.327Z,5.60
2019-04-20T11:24:02.512Z,5.50
2019-04-20T11:25:02.152Z,6.00
2019-04-20T11:26:02.210Z,6.00
2019-04-20T11:27:02.392Z,5.30
2019-04-20T11:28:01.892Z,5.20
2019-04-20T11:29:02.181Z,5.50
2019-04-20T11:30:02.489Z,5.30
2019-04-20T11:31:01.947Z,5.20
2019-04-20T11:32:03.020Z,5.30
2019-04-20T11:33:02.301Z,5.00
2019-04-20T11:34:01.663Z,5.40
2019-04-20T11:35:11.092Z,5.30
2019-04-20T11:36:03.235Z,5.10
2019-04-20T11:37:01.628Z,5.10
2019-04-20T11:38:02.843Z,5.60
2019-04-20T11:39:02.932Z,5.40
2019-04-20T11:40:01.659Z,5.60
2019-04-20T11:41:11.305Z,5.70
2019-04-20T11:42:03.666Z,5.90
2019-04-20T11:43:01.737Z,5.80
2019-04-20T11:44:01.963Z,6.30
2019-04-20T11:45:02.762Z,5.40
2019-04-20T11:46:02.776Z,5.90
2019-04-20T11:47:02.794Z,5.50
2019-04-20T11:48:01.512Z,5.90
2019-04-20T11:49:01.504Z,5.90
2019-04-20T11:50:03.679Z,5.80
2019-04-20T11:51:01.485Z,6.00
2019-04-20T11:52:01.569Z,5.70
2019-04-20T11:53:01.586Z,5.80
2019-04-20T11:54:01.453Z,5.60
2019-04-20T11:55:02.442Z,6.00
2019-04-20T11:56:02.569Z,6.00
2019-04-20T11:57:01.643Z,6.20
2019-04-20T11:58:01.721Z,5.70
2019-04-20T11:59:02.959Z,6.00
2019-04-20T12:00:01.394Z,6.80
2019-04-20T12:01:08.522Z,6.10
2019-04-20T12:02:05.495Z,6.20
2019-04-20T12:03:10.930Z,6.50
2019-04-20T12:04:16.939Z,6.70
2019-04-20T12:05:16.701Z,6.00
2019-04-20T12:06:05.317Z,6.60
2019-04-20T12:07:02.321Z,6.20
2019-04-20T12:08:02.866Z,6.00
2019-04-20T12:09:01.304Z,6.00
2019-04-20T12:10:09.064Z,6.30
2019-04-20T12:11:18.766Z,6.40
2019-04-20T12:12:15.644Z,6.10
2019-04-20T12:13:03.690Z,6.80
2019-04-20T12:14:02.685Z,6.70
2019-04-20T12:15:01.238Z,7.70
2019-04-20T12:16:01.603Z,7.70
2019-04-20T12:17:01.776Z,7.60
2019-04-20T12:18:01.951Z,7.00
2019-04-20T12:19:02.230Z,7.40
2019-04-20T12:20:01.748Z,7.40
2019-04-20T12:21:01.285Z,7.00
2019-04-20T12:22:01.319Z,6.90
2019-04-20T12:23:02.216Z,7.20
2019-04-20T12:24:02.398Z,6.20
2019-04-20T12:25:02.462Z,6.70
2019-04-20T12:26:02.034Z,6.80
2019-04-20T12:27:01.113Z,6.30
2019-04-20T12:28:02.354Z,6.70
2019-04-20T12:29:01.409Z,6.70
2019-04-20T12:30:01.799Z,6.30
2019-04-20T12:31:04.129Z,6.50
2019-04-20T12:32:05.497Z,6.50
2019-04-20T12:33:02.194Z,6.60
2019-04-20T12:34:02.274Z,6.40
2019-04-20T12:35:02.566Z,6.30
2019-04-20T12:36:02.553Z,5.80
2019-04-20T12:37:01.054Z,6.10
2019-04-20T12:38:01.402Z,6.10
2019-04-20T12:39:01.208Z,6.30
2019-04-20T12:40:00.982Z,6.00
2019-04-20T12:41:04.223Z,5.80
2019-04-20T12:42:05.675Z,6.20
2019-04-20T12:43:01.967Z,6.10
2019-04-20T12:44:01.749Z,6.00
2019-04-20T12:45:01.740Z,5.40
2019-04-20T12:46:02.216Z,5.90
2019-04-20T12:47:01.587Z,5.60
2019-04-20T12:48:01.771Z,5.70
2019-04-20T12:49:01.856Z,5.80
2019-04-20T12:50:01.418Z,6.10
2019-04-20T12:51:01.595Z,5.40
2019-04-20T12:52:04.397Z,5.50
2019-04-20T12:53:04.450Z,5.80
2019-04-20T12:54:00.895Z,5.20
2019-04-20T12:55:02.827Z,5.50
2019-04-20T12:56:02.196Z,5.80
2019-04-20T12:57:00.807Z,5.30
2019-04-20T12:58:00.812Z,5.40
2019-04-20T12:59:03.272Z,5.20
2019-04-20T13:00:01.651Z,5.50
2019-04-20T13:01:00.771Z,5.10
2019-04-20T13:02:01.623Z,5.30
2019-04-20T13:03:01.203Z,5.00
2019-04-20T13:04:02.967Z,5.40
2019-04-20T13:05:01.685Z,5.10
2019-04-20T13:06:01.833Z,5.20
2019-04-20T13:07:01.781Z,5.40
2019-04-20T13:08:02.365Z,5.40
2019-04-20T13:09:02.399Z,5.10
2019-04-20T13:10:03.545Z,5.30
2019-04-20T13:11:00.663Z,5.30
2019-04-20T13:12:05.549Z,5.00
2019-04-20T13:13:02.574Z,5.20
2019-04-20T13:14:02.113Z,5.00
2019-04-20T13:15:00.628Z,5.30
2019-04-20T13:16:00.665Z,5.10
2019-04-20T13:17:02.004Z,5.10
2019-04-20T13:18:01.233Z,5.00
2019-04-20T13:19:01.541Z,5.10
2019-04-20T13:20:00.597Z,5.10
2019-04-20T13:21:01.771Z,4.90
2019-04-20T13:22:01.080Z,5.20
2019-04-20T13:23:02.754Z,5.10
2019-04-20T13:24:00.907Z,4.80
2019-04-20T13:25:01.115Z,5.20
2019-04-20T13:26:02.235Z,5.20
2019-04-20T13:27:00.676Z,5.10
2019-04-20T13:28:01.045Z,4.80
2019-04-20T13:29:01.010Z,4.80
2019-04-20T13:30:00.829Z,4.80
2019-04-20T13:31:01.674Z,4.90
2019-04-20T13:32:00.445Z,4.90
2019-04-20T13:33:01.730Z,4.90
2019-04-20T13:34:01.536Z,4.60
2019-04-20T13:35:00.420Z,4.90
2019-04-20T13:36:01.645Z,4.30
2019-04-20T13:37:00.395Z,4.70
2019-04-20T13:38:00.385Z,4.80